sensor_id;sensor_type;location;lat;lon;timestamp;temperature;humidity
63039;DHT22;49125;48.812;9.206;2022-08-01T00:00:13;22.30;48.70
63039;DHT22;49125;48.812;9.206;2022-08-01T00:02:39;22.30;48.90
63039;DHT22;49125;48.812;9.206;2022-08-01T00:05:06;22.30;49.30
63039;DHT22;49125;48.812;9.206;2022-08-01T00:07:33;22.20;49.00
63039;DHT22;49125;48.812;9.206;2022-08-01T00:09:58;22.20;49.10
63039;DHT22;49125;48.812;9.206;2022-08-01T00:12:24;22.20;49.20
63039;DHT22;49125;48.812;9.206;2022-08-01T00:14:49;22.20;49.40
63039;DHT22;49125;48.812;9.206;2022-08-01T00:17:15;22.20;49.30
63039;DHT22;49125;48.812;9.206;2022-08-01T00:19:41;22.20;49.20
63039;DHT22;49125;48.812;9.206;2022-08-01T00:22:06;22.20;49.50
63039;DHT22;49125;48.812;9.206;2022-08-01T00:24:35;22.20;49.40
63039;DHT22;49125;48.812;9.206;2022-08-01T00:27:00;22.20;49.40
63039;DHT22;49125;48.812;9.206;2022-08-01T00:29:26;22.20;49.70
63039;DHT22;49125;48.812;9.206;2022-08-01T00:31:51;22.20;49.70
63039;DHT22;49125;48.812;9.206;2022-08-01T00:34:17;22.20;49.70
63039;DHT22;49125;48.812;9.206;2022-08-01T00:36:43;22.10;49.70
63039;DHT22;49125;48.812;9.206;2022-08-01T00:39:08;22.10;49.80
63039;DHT22;49125;48.812;9.206;2022-08-01T00:41:34;22.10;49.90
63039;DHT22;49125;48.812;9.206;2022-08-01T00:44:03;22.10;50.10
63039;DHT22;49125;48.812;9.206;2022-08-01T00:46:29;22.10;50.80
63039;DHT22;49125;48.812;9.206;2022-08-01T00:48:54;22.00;50.30
63039;DHT22;49125;48.812;9.206;2022-08-01T00:51:20;22.00;50.60
63039;DHT22;49125;48.812;9.206;2022-08-01T00:53:46;22.00;51.20
63039;DHT22;49125;48.812;9.206;2022-08-01T00:56:12;21.90;51.10
63039;DHT22;49125;48.812;9.206;2022-08-01T00:58:40;21.90;51.40
63039;DHT22;49125;48.812;9.206;2022-08-01T01:01:06;21.80;51.20
63039;DHT22;49125;48.812;9.206;2022-08-01T01:03:31;21.90;51.30
63039;DHT22;49125;48.812;9.206;2022-08-01T01:14:38;21.90;52.00
63039;DHT22;49125;48.812;9.206;2022-08-01T01:17:06;21.90;52.60
63039;DHT22;49125;48.812;9.206;2022-08-01T01:19:36;21.80;52.30
63039;DHT22;49125;48.812;9.206;2022-08-01T01:25:33;21.80;52.90
63039;DHT22;49125;48.812;9.206;2022-08-01T01:30:41;21.70;53.60
63039;DHT22;49125;48.812;9.206;2022-08-01T01:33:09;21.70;54.00
63039;DHT22;49125;48.812;9.206;2022-08-01T01:35:38;21.70;53.70
63039;DHT22;49125;48.812;9.206;2022-08-01T01:38:20;21.70;54.20
63039;DHT22;49125;48.812;9.206;2022-08-01T01:40:48;21.70;54.60
63039;DHT22;49125;48.812;9.206;2022-08-01T01:43:15;21.70;54.40
63039;DHT22;49125;48.812;9.206;2022-08-01T01:45:47;21.70;54.50
63039;DHT22;49125;48.812;9.206;2022-08-01T01:48:16;21.80;54.90
63039;DHT22;49125;48.812;9.206;2022-08-01T01:50:43;21.80;54.90
63039;DHT22;49125;48.812;9.206;2022-08-01T01:53:12;21.80;55.20
63039;DHT22;49125;48.812;9.206;2022-08-01T01:55:39;21.70;55.40
63039;DHT22;49125;48.812;9.206;2022-08-01T01:58:07;21.70;55.40
63039;DHT22;49125;48.812;9.206;2022-08-01T02:00:34;21.70;55.70
63039;DHT22;49125;48.812;9.206;2022-08-01T02:03:02;21.60;56.20
63039;DHT22;49125;48.812;9.206;2022-08-01T02:05:30;21.60;56.20
63039;DHT22;49125;48.812;9.206;2022-08-01T02:08:00;21.60;56.40
63039;DHT22;49125;48.812;9.206;2022-08-01T02:10:27;21.60;56.40
63039;DHT22;49125;48.812;9.206;2022-08-01T02:12:54;21.50;57.50
63039;DHT22;49125;48.812;9.206;2022-08-01T02:15:22;21.50;57.60
63039;DHT22;49125;48.812;9.206;2022-08-01T02:17:49;21.50;57.50
63039;DHT22;49125;48.812;9.206;2022-08-01T02:20:16;21.40;57.60
63039;DHT22;49125;48.812;9.206;2022-08-01T02:22:49;21.40;57.80
63039;DHT22;49125;48.812;9.206;2022-08-01T02:25:23;21.40;58.30
63039;DHT22;49125;48.812;9.206;2022-08-01T02:28:09;21.40;58.70
63039;DHT22;49125;48.812;9.206;2022-08-01T02:30:38;21.30;59.00
63039;DHT22;49125;48.812;9.206;2022-08-01T02:33:26;21.30;58.90
63039;DHT22;49125;48.812;9.206;2022-08-01T02:35:57;21.30;59.60
63039;DHT22;49125;48.812;9.206;2022-08-01T02:38:26;21.30;59.70
63039;DHT22;49125;48.812;9.206;2022-08-01T02:40:55;21.20;60.00
63039;DHT22;49125;48.812;9.206;2022-08-01T02:43:26;21.20;60.50
63039;DHT22;49125;48.812;9.206;2022-08-01T02:45:57;21.20;60.70
63039;DHT22;49125;48.812;9.206;2022-08-01T02:48:25;21.20;60.90
63039;DHT22;49125;48.812;9.206;2022-08-01T02:50:54;21.20;61.10
63039;DHT22;49125;48.812;9.206;2022-08-01T02:53:21;21.20;61.90
63039;DHT22;49125;48.812;9.206;2022-08-01T02:55:49;21.20;61.60
63039;DHT22;49125;48.812;9.206;2022-08-01T02:58:16;21.10;62.10
63039;DHT22;49125;48.812;9.206;2022-08-01T03:00:44;21.10;62.50
63039;DHT22;49125;48.812;9.206;2022-08-01T03:03:11;21.10;62.80
63039;DHT22;49125;48.812;9.206;2022-08-01T03:05:38;21.10;63.30
63039;DHT22;49125;48.812;9.206;2022-08-01T03:08:06;21.00;63.60
63039;DHT22;49125;48.812;9.206;2022-08-01T03:10:33;21.00;63.80
63039;DHT22;49125;48.812;9.206;2022-08-01T03:13:01;21.00;64.40
63039;DHT22;49125;48.812;9.206;2022-08-01T03:15:30;21.00;64.40
63039;DHT22;49125;48.812;9.206;2022-08-01T03:17:57;20.90;64.70
63039;DHT22;49125;48.812;9.206;2022-08-01T03:20:25;20.90;65.30
63039;DHT22;49125;48.812;9.206;2022-08-01T03:22:53;20.90;65.70
63039;DHT22;49125;48.812;9.206;2022-08-01T03:25:20;20.80;66.10
63039;DHT22;49125;48.812;9.206;2022-08-01T03:27:51;20.80;66.70
63039;DHT22;49125;48.812;9.206;2022-08-01T03:30:19;20.80;67.50
63039;DHT22;49125;48.812;9.206;2022-08-01T03:32:46;20.70;67.50
63039;DHT22;49125;48.812;9.206;2022-08-01T03:35:11;20.70;68.30
63039;DHT22;49125;48.812;9.206;2022-08-01T03:37:50;20.70;68.60
63039;DHT22;49125;48.812;9.206;2022-08-01T03:40:20;20.60;69.30
63039;DHT22;49125;48.812;9.206;2022-08-01T03:42:58;20.60;70.10
63039;DHT22;49125;48.812;9.206;2022-08-01T03:45:33;20.60;70.50
63039;DHT22;49125;48.812;9.206;2022-08-01T03:48:08;20.60;70.90
63039;DHT22;49125;48.812;9.206;2022-08-01T03:50:37;20.60;71.60
63039;DHT22;49125;48.812;9.206;2022-08-01T03:53:06;20.50;71.30
63039;DHT22;49125;48.812;9.206;2022-08-01T03:55:39;20.50;72.00
63039;DHT22;49125;48.812;9.206;2022-08-01T03:58:09;20.50;72.90
63039;DHT22;49125;48.812;9.206;2022-08-01T04:00:37;20.50;72.90
63039;DHT22;49125;48.812;9.206;2022-08-01T04:03:10;20.50;73.60
63039;DHT22;49125;48.812;9.206;2022-08-01T04:05:37;20.50;75.30
63039;DHT22;49125;48.812;9.206;2022-08-01T04:08:05;20.50;77.50
63039;DHT22;49125;48.812;9.206;2022-08-01T04:10:31;20.50;78.10
63039;DHT22;49125;48.812;9.206;2022-08-01T04:12:56;20.50;79.40
63039;DHT22;49125;48.812;9.206;2022-08-01T04:15:22;20.50;79.70
63039;DHT22;49125;48.812;9.206;2022-08-01T04:17:49;20.50;80.00
63039;DHT22;49125;48.812;9.206;2022-08-01T04:20:14;20.50;81.70
63039;DHT22;49125;48.812;9.206;2022-08-01T04:22:41;20.50;82.10
63039;DHT22;49125;48.812;9.206;2022-08-01T04:25:14;20.50;82.60
63039;DHT22;49125;48.812;9.206;2022-08-01T04:27:43;20.50;83.80
63039;DHT22;49125;48.812;9.206;2022-08-01T04:30:11;20.50;83.90
63039;DHT22;49125;48.812;9.206;2022-08-01T04:32:38;20.50;84.60
63039;DHT22;49125;48.812;9.206;2022-08-01T04:35:07;20.60;84.80
63039;DHT22;49125;48.812;9.206;2022-08-01T04:37:36;20.60;84.90
63039;DHT22;49125;48.812;9.206;2022-08-01T04:40:04;20.60;85.50
63039;DHT22;49125;48.812;9.206;2022-08-01T04:42:31;20.60;85.00
63039;DHT22;49125;48.812;9.206;2022-08-01T04:44:58;20.60;85.10
63039;DHT22;49125;48.812;9.206;2022-08-01T04:47:25;20.70;85.40
63039;DHT22;49125;48.812;9.206;2022-08-01T04:49:51;20.70;86.10
63039;DHT22;49125;48.812;9.206;2022-08-01T04:52:17;20.70;86.00
63039;DHT22;49125;48.812;9.206;2022-08-01T04:54:45;20.70;87.10
63039;DHT22;49125;48.812;9.206;2022-08-01T04:57:14;20.70;86.80
63039;DHT22;49125;48.812;9.206;2022-08-01T04:59:42;20.80;86.70
63039;DHT22;49125;48.812;9.206;2022-08-01T05:02:11;20.80;87.30
63039;DHT22;49125;48.812;9.206;2022-08-01T05:04:37;20.90;87.10
63039;DHT22;49125;48.812;9.206;2022-08-01T05:07:04;21.00;87.20
63039;DHT22;49125;48.812;9.206;2022-08-01T05:09:30;21.00;86.90
63039;DHT22;49125;48.812;9.206;2022-08-01T05:11:56;21.10;87.30
63039;DHT22;49125;48.812;9.206;2022-08-01T05:14:24;21.20;86.40
63039;DHT22;49125;48.812;9.206;2022-08-01T05:16:51;21.20;86.40
63039;DHT22;49125;48.812;9.206;2022-08-01T05:19:16;21.30;85.70
63039;DHT22;49125;48.812;9.206;2022-08-01T05:21:42;21.40;85.20
63039;DHT22;49125;48.812;9.206;2022-08-01T05:24:07;21.40;86.50
63039;DHT22;49125;48.812;9.206;2022-08-01T05:26:33;21.50;86.60
63039;DHT22;49125;48.812;9.206;2022-08-01T05:28:59;21.60;86.10
63039;DHT22;49125;48.812;9.206;2022-08-01T05:31:25;21.70;85.90
63039;DHT22;49125;48.812;9.206;2022-08-01T05:33:51;21.90;85.90
63039;DHT22;49125;48.812;9.206;2022-08-01T05:36:16;22.00;85.50
63039;DHT22;49125;48.812;9.206;2022-08-01T05:38:42;22.10;85.00
63039;DHT22;49125;48.812;9.206;2022-08-01T05:41:07;22.10;84.60
63039;DHT22;49125;48.812;9.206;2022-08-01T05:43:33;22.20;84.10
63039;DHT22;49125;48.812;9.206;2022-08-01T05:45:58;22.40;84.60
63039;DHT22;49125;48.812;9.206;2022-08-01T05:48:24;22.50;84.50
63039;DHT22;49125;48.812;9.206;2022-08-01T05:50:50;22.50;84.10
63039;DHT22;49125;48.812;9.206;2022-08-01T05:53:16;22.70;83.30
63039;DHT22;49125;48.812;9.206;2022-08-01T05:55:42;22.90;83.60
63039;DHT22;49125;48.812;9.206;2022-08-01T05:58:07;23.10;83.00
63039;DHT22;49125;48.812;9.206;2022-08-01T06:00:33;23.30;82.60
63039;DHT22;49125;48.812;9.206;2022-08-01T06:02:58;23.40;81.60
63039;DHT22;49125;48.812;9.206;2022-08-01T06:05:24;23.60;82.00
63039;DHT22;49125;48.812;9.206;2022-08-01T06:07:49;23.80;81.90
63039;DHT22;49125;48.812;9.206;2022-08-01T06:10:15;24.10;80.80
63039;DHT22;49125;48.812;9.206;2022-08-01T06:12:40;24.40;81.20
63039;DHT22;49125;48.812;9.206;2022-08-01T06:15:06;24.60;79.50
63039;DHT22;49125;48.812;9.206;2022-08-01T06:17:32;24.60;79.30
63039;DHT22;49125;48.812;9.206;2022-08-01T06:19:58;24.70;79.50
63039;DHT22;49125;48.812;9.206;2022-08-01T06:22:24;24.80;78.90
63039;DHT22;49125;48.812;9.206;2022-08-01T06:24:50;24.90;78.40
63039;DHT22;49125;48.812;9.206;2022-08-01T06:27:15;24.90;79.10
63039;DHT22;49125;48.812;9.206;2022-08-01T06:29:41;25.10;78.00
63039;DHT22;49125;48.812;9.206;2022-08-01T06:32:08;25.20;77.30
63039;DHT22;49125;48.812;9.206;2022-08-01T06:34:35;25.40;77.40
63039;DHT22;49125;48.812;9.206;2022-08-01T06:37:00;25.50;76.40
63039;DHT22;49125;48.812;9.206;2022-08-01T06:39:26;25.50;76.50
63039;DHT22;49125;48.812;9.206;2022-08-01T06:41:52;25.60;76.20
63039;DHT22;49125;48.812;9.206;2022-08-01T06:44:17;25.60;76.50
63039;DHT22;49125;48.812;9.206;2022-08-01T06:46:43;25.70;75.90
63039;DHT22;49125;48.812;9.206;2022-08-01T06:49:08;25.70;76.00
63039;DHT22;49125;48.812;9.206;2022-08-01T06:51:37;25.70;75.10
63039;DHT22;49125;48.812;9.206;2022-08-01T06:54:02;25.80;74.70
63039;DHT22;49125;48.812;9.206;2022-08-01T06:56:28;26.00;74.70
63039;DHT22;49125;48.812;9.206;2022-08-01T06:58:54;26.20;75.10
63039;DHT22;49125;48.812;9.206;2022-08-01T07:01:26;26.40;72.10
63039;DHT22;49125;48.812;9.206;2022-08-01T07:03:52;26.60;73.20
63039;DHT22;49125;48.812;9.206;2022-08-01T07:06:18;26.70;71.20
63039;DHT22;49125;48.812;9.206;2022-08-01T07:08:43;26.80;71.60
63039;DHT22;49125;48.812;9.206;2022-08-01T07:11:09;27.10;71.50
63039;DHT22;49125;48.812;9.206;2022-08-01T07:13:34;27.20;71.30
63039;DHT22;49125;48.812;9.206;2022-08-01T07:16:00;27.30;70.90
63039;DHT22;49125;48.812;9.206;2022-08-01T07:18:25;27.40;71.20
63039;DHT22;49125;48.812;9.206;2022-08-01T07:20:51;27.30;69.00
63039;DHT22;49125;48.812;9.206;2022-08-01T07:23:17;27.10;69.10
63039;DHT22;49125;48.812;9.206;2022-08-01T07:25:42;27.10;70.50
63039;DHT22;49125;48.812;9.206;2022-08-01T07:28:08;27.30;69.30
63039;DHT22;49125;48.812;9.206;2022-08-01T07:30:33;27.50;69.80
63039;DHT22;49125;48.812;9.206;2022-08-01T07:32:59;27.60;68.20
63039;DHT22;49125;48.812;9.206;2022-08-01T07:35:25;27.60;69.40
63039;DHT22;49125;48.812;9.206;2022-08-01T07:37:51;27.80;68.70
63039;DHT22;49125;48.812;9.206;2022-08-01T07:40:18;27.80;67.70
63039;DHT22;49125;48.812;9.206;2022-08-01T07:42:44;27.70;66.70
63039;DHT22;49125;48.812;9.206;2022-08-01T07:45:10;27.70;68.30
63039;DHT22;49125;48.812;9.206;2022-08-01T07:47:37;28.00;68.60
63039;DHT22;49125;48.812;9.206;2022-08-01T07:50:04;28.10;66.70
63039;DHT22;49125;48.812;9.206;2022-08-01T07:52:30;28.20;65.70
63039;DHT22;49125;48.812;9.206;2022-08-01T07:54:56;28.10;64.80
63039;DHT22;49125;48.812;9.206;2022-08-01T07:57:23;28.00;65.80
63039;DHT22;49125;48.812;9.206;2022-08-01T07:59:49;27.90;65.10
63039;DHT22;49125;48.812;9.206;2022-08-01T08:02:14;28.20;66.80
63039;DHT22;49125;48.812;9.206;2022-08-01T08:04:41;28.60;65.00
63039;DHT22;49125;48.812;9.206;2022-08-01T08:07:06;29.10;63.80
63039;DHT22;49125;48.812;9.206;2022-08-01T08:09:32;29.30;62.30
63039;DHT22;49125;48.812;9.206;2022-08-01T08:11:58;29.20;63.60
63039;DHT22;49125;48.812;9.206;2022-08-01T08:14:23;29.20;62.70
63039;DHT22;49125;48.812;9.206;2022-08-01T08:16:51;29.30;62.90
63039;DHT22;49125;48.812;9.206;2022-08-01T08:19:17;29.10;62.50
63039;DHT22;49125;48.812;9.206;2022-08-01T08:21:42;28.90;61.90
63039;DHT22;49125;48.812;9.206;2022-08-01T08:24:08;29.20;63.20
63039;DHT22;49125;48.812;9.206;2022-08-01T08:26:47;29.10;60.60
63039;DHT22;49125;48.812;9.206;2022-08-01T08:29:13;29.00;61.80
63039;DHT22;49125;48.812;9.206;2022-08-01T08:31:39;29.20;62.80
63039;DHT22;49125;48.812;9.206;2022-08-01T08:34:05;29.20;61.90
63039;DHT22;49125;48.812;9.206;2022-08-01T08:36:30;28.90;60.90
63039;DHT22;49125;48.812;9.206;2022-08-01T08:38:56;28.60;60.40
63039;DHT22;49125;48.812;9.206;2022-08-01T08:41:22;28.40;61.60
63039;DHT22;49125;48.812;9.206;2022-08-01T08:43:48;28.50;61.70
63039;DHT22;49125;48.812;9.206;2022-08-01T08:46:14;28.80;62.30
63039;DHT22;49125;48.812;9.206;2022-08-01T08:48:41;29.00;61.10
63039;DHT22;49125;48.812;9.206;2022-08-01T08:51:08;28.90;61.10
63039;DHT22;49125;48.812;9.206;2022-08-01T08:53:35;28.80;62.10
63039;DHT22;49125;48.812;9.206;2022-08-01T08:56:02;28.90;61.40
63039;DHT22;49125;48.812;9.206;2022-08-01T08:58:29;29.50;62.00
63039;DHT22;49125;48.812;9.206;2022-08-01T09:00:59;29.90;60.20
63039;DHT22;49125;48.812;9.206;2022-08-01T09:03:28;29.90;58.10
63039;DHT22;49125;48.812;9.206;2022-08-01T09:05:53;29.80;59.10
63039;DHT22;49125;48.812;9.206;2022-08-01T09:08:19;29.80;60.40
63039;DHT22;49125;48.812;9.206;2022-08-01T09:10:44;30.20;59.10
63039;DHT22;49125;48.812;9.206;2022-08-01T09:13:14;30.50;58.40
63039;DHT22;49125;48.812;9.206;2022-08-01T09:15:48;30.60;57.30
63039;DHT22;49125;48.812;9.206;2022-08-01T09:18:39;30.90;57.50
63039;DHT22;49125;48.812;9.206;2022-08-01T09:25:58;30.60;56.20
63039;DHT22;49125;48.812;9.206;2022-08-01T09:28:28;31.00;55.50
63039;DHT22;49125;48.812;9.206;2022-08-01T09:30:58;31.20;56.70
63039;DHT22;49125;48.812;9.206;2022-08-01T09:33:24;31.10;55.40
63039;DHT22;49125;48.812;9.206;2022-08-01T09:35:57;30.80;56.30
63039;DHT22;49125;48.812;9.206;2022-08-01T09:38:24;30.60;56.50
63039;DHT22;49125;48.812;9.206;2022-08-01T09:41:00;30.30;56.10
63039;DHT22;49125;48.812;9.206;2022-08-01T09:43:30;30.20;56.10
63039;DHT22;49125;48.812;9.206;2022-08-01T09:45:57;30.40;55.70
63039;DHT22;49125;48.812;9.206;2022-08-01T09:48:23;30.60;55.60
63039;DHT22;49125;48.812;9.206;2022-08-01T09:50:51;30.90;56.00
63039;DHT22;49125;48.812;9.206;2022-08-01T09:53:17;31.00;55.90
63039;DHT22;49125;48.812;9.206;2022-08-01T09:55:43;31.20;56.00
63039;DHT22;49125;48.812;9.206;2022-08-01T09:58:10;31.10;54.60
63039;DHT22;49125;48.812;9.206;2022-08-01T10:00:38;31.00;54.70
63039;DHT22;49125;48.812;9.206;2022-08-01T10:03:23;30.90;54.50
63039;DHT22;49125;48.812;9.206;2022-08-01T10:05:49;30.90;54.10
63039;DHT22;49125;48.812;9.206;2022-08-01T10:08:15;30.80;54.40
63039;DHT22;49125;48.812;9.206;2022-08-01T10:10:41;31.20;55.90
63039;DHT22;49125;48.812;9.206;2022-08-01T10:13:08;31.60;53.20
63039;DHT22;49125;48.812;9.206;2022-08-01T10:15:34;32.10;53.30
63039;DHT22;49125;48.812;9.206;2022-08-01T10:18:01;32.40;52.10
63039;DHT22;49125;48.812;9.206;2022-08-01T10:20:31;32.00;51.40
63039;DHT22;49125;48.812;9.206;2022-08-01T10:23:02;32.30;53.20
63039;DHT22;49125;48.812;9.206;2022-08-01T10:25:31;32.70;52.60
63039;DHT22;49125;48.812;9.206;2022-08-01T10:27:59;33.10;50.50
63039;DHT22;49125;48.812;9.206;2022-08-01T10:30:26;33.70;51.10
63039;DHT22;49125;48.812;9.206;2022-08-01T10:32:52;34.00;48.20
63039;DHT22;49125;48.812;9.206;2022-08-01T10:35:19;33.80;48.40
63039;DHT22;49125;48.812;9.206;2022-08-01T10:37:46;33.20;49.40
63039;DHT22;49125;48.812;9.206;2022-08-01T10:40:13;33.10;49.60
63039;DHT22;49125;48.812;9.206;2022-08-01T10:42:43;33.10;49.40
63039;DHT22;49125;48.812;9.206;2022-08-01T10:45:10;32.90;48.80
63039;DHT22;49125;48.812;9.206;2022-08-01T10:47:53;32.20;49.60
63039;DHT22;49125;48.812;9.206;2022-08-01T10:58:33;31.40;51.40
63039;DHT22;49125;48.812;9.206;2022-08-01T11:01:29;32.00;49.90
63039;DHT22;49125;48.812;9.206;2022-08-01T11:08:54;33.60;46.80
63039;DHT22;49125;48.812;9.206;2022-08-01T11:11:21;33.40;46.80
63039;DHT22;49125;48.812;9.206;2022-08-01T11:14:01;33.00;46.90
63039;DHT22;49125;48.812;9.206;2022-08-01T11:16:37;32.90;46.80
63039;DHT22;49125;48.812;9.206;2022-08-01T11:19:04;33.30;49.00
63039;DHT22;49125;48.812;9.206;2022-08-01T11:27:18;33.70;44.60
63039;DHT22;49125;48.812;9.206;2022-08-01T11:30:00;33.10;45.50
63039;DHT22;49125;48.812;9.206;2022-08-01T11:32:29;33.70;47.50
63039;DHT22;49125;48.812;9.206;2022-08-01T11:34:55;34.40;46.00
63039;DHT22;49125;48.812;9.206;2022-08-01T11:37:29;34.90;45.70
63039;DHT22;49125;48.812;9.206;2022-08-01T11:40:20;34.50;44.30
63039;DHT22;49125;48.812;9.206;2022-08-01T11:42:47;34.00;45.20
63039;DHT22;49125;48.812;9.206;2022-08-01T11:45:12;34.10;44.40
63039;DHT22;49125;48.812;9.206;2022-08-01T11:47:48;34.10;45.60
63039;DHT22;49125;48.812;9.206;2022-08-01T11:50:34;34.80;44.30
63039;DHT22;49125;48.812;9.206;2022-08-01T11:53:05;35.90;43.00
63039;DHT22;49125;48.812;9.206;2022-08-01T11:55:31;36.70;43.50
63039;DHT22;49125;48.812;9.206;2022-08-01T11:58:08;36.70;41.70
63039;DHT22;49125;48.812;9.206;2022-08-01T12:00:34;35.80;41.60
63039;DHT22;49125;48.812;9.206;2022-08-01T12:03:05;35.70;43.90
63039;DHT22;49125;48.812;9.206;2022-08-01T12:05:32;36.60;43.50
63039;DHT22;49125;48.812;9.206;2022-08-01T12:08:00;35.80;40.30
63039;DHT22;49125;48.812;9.206;2022-08-01T12:10:35;35.20;41.30
63039;DHT22;49125;48.812;9.206;2022-08-01T12:13:05;34.80;42.10
63039;DHT22;49125;48.812;9.206;2022-08-01T12:15:35;35.10;41.70
63039;DHT22;49125;48.812;9.206;2022-08-01T12:18:03;35.60;41.20
63039;DHT22;49125;48.812;9.206;2022-08-01T12:20:38;36.50;40.70
63039;DHT22;49125;48.812;9.206;2022-08-01T12:23:08;37.40;41.60
63039;DHT22;49125;48.812;9.206;2022-08-01T12:25:35;37.70;39.60
63039;DHT22;49125;48.812;9.206;2022-08-01T12:28:03;37.30;39.70
63039;DHT22;49125;48.812;9.206;2022-08-01T12:30:31;37.00;40.40
63039;DHT22;49125;48.812;9.206;2022-08-01T12:33:00;37.00;39.50
63039;DHT22;49125;48.812;9.206;2022-08-01T12:35:28;36.10;40.20
63039;DHT22;49125;48.812;9.206;2022-08-01T12:37:59;36.30;40.20
63039;DHT22;49125;48.812;9.206;2022-08-01T12:40:28;37.40;40.90
63039;DHT22;49125;48.812;9.206;2022-08-01T12:42:56;38.50;39.50
63039;DHT22;49125;48.812;9.206;2022-08-01T12:45:25;39.30;39.50
63039;DHT22;49125;48.812;9.206;2022-08-01T12:47:53;40.00;37.90
63039;DHT22;49125;48.812;9.206;2022-08-01T12:50:21;38.30;36.90
63039;DHT22;49125;48.812;9.206;2022-08-01T12:52:48;36.90;37.80
63039;DHT22;49125;48.812;9.206;2022-08-01T12:55:22;37.10;39.40
63039;DHT22;49125;48.812;9.206;2022-08-01T12:58:03;37.80;38.70
63039;DHT22;49125;48.812;9.206;2022-08-01T13:00:28;38.30;38.70
63039;DHT22;49125;48.812;9.206;2022-08-01T13:03:06;37.80;37.80
63039;DHT22;49125;48.812;9.206;2022-08-01T13:05:48;37.40;38.40
63039;DHT22;49125;48.812;9.206;2022-08-01T13:08:20;36.80;38.90
63039;DHT22;49125;48.812;9.206;2022-08-01T13:10:46;35.90;38.20
63039;DHT22;49125;48.812;9.206;2022-08-01T13:13:13;34.70;39.40
63039;DHT22;49125;48.812;9.206;2022-08-01T13:15:41;34.00;41.00
63039;DHT22;49125;48.812;9.206;2022-08-01T13:18:28;34.00;42.00
63039;DHT22;49125;48.812;9.206;2022-08-01T13:21:20;35.30;40.30
63039;DHT22;49125;48.812;9.206;2022-08-01T13:24:05;37.00;39.50
63039;DHT22;49125;48.812;9.206;2022-08-01T13:26:47;38.40;39.90
63039;DHT22;49125;48.812;9.206;2022-08-01T13:29:32;39.30;37.20
63039;DHT22;49125;48.812;9.206;2022-08-01T13:31:59;38.40;37.10
63039;DHT22;49125;48.812;9.206;2022-08-01T13:34:33;37.20;37.60
63039;DHT22;49125;48.812;9.206;2022-08-01T13:36:59;37.80;38.20
63039;DHT22;49125;48.812;9.206;2022-08-01T13:39:27;38.60;38.20
63039;DHT22;49125;48.812;9.206;2022-08-01T13:42:14;38.70;36.60
63039;DHT22;49125;48.812;9.206;2022-08-01T13:44:41;37.60;37.30
63039;DHT22;49125;48.812;9.206;2022-08-01T13:47:07;36.70;37.70
63039;DHT22;49125;48.812;9.206;2022-08-01T13:49:33;35.90;38.60
63039;DHT22;49125;48.812;9.206;2022-08-01T13:51:59;35.10;39.20
63039;DHT22;49125;48.812;9.206;2022-08-01T13:54:24;35.60;39.80
63039;DHT22;49125;48.812;9.206;2022-08-01T13:56:51;36.20;38.60
63039;DHT22;49125;48.812;9.206;2022-08-01T13:59:17;36.70;38.80
63039;DHT22;49125;48.812;9.206;2022-08-01T14:01:43;36.20;37.70
63039;DHT22;49125;48.812;9.206;2022-08-01T14:04:08;35.80;38.70
63039;DHT22;49125;48.812;9.206;2022-08-01T14:06:34;35.40;38.60
63039;DHT22;49125;48.812;9.206;2022-08-01T14:09:03;35.60;39.70
63039;DHT22;49125;48.812;9.206;2022-08-01T14:11:29;35.70;38.50
63039;DHT22;49125;48.812;9.206;2022-08-01T14:13:55;36.60;39.20
63039;DHT22;49125;48.812;9.206;2022-08-01T14:16:21;37.40;37.70
63039;DHT22;49125;48.812;9.206;2022-08-01T14:18:46;37.60;37.80
63039;DHT22;49125;48.812;9.206;2022-08-01T14:21:12;37.30;38.10
63039;DHT22;49125;48.812;9.206;2022-08-01T14:23:37;37.00;38.40
63039;DHT22;49125;48.812;9.206;2022-08-01T14:26:03;36.60;39.10
63039;DHT22;49125;48.812;9.206;2022-08-01T14:28:29;36.30;38.50
63039;DHT22;49125;48.812;9.206;2022-08-01T14:30:56;36.10;38.40
63039;DHT22;49125;48.812;9.206;2022-08-01T14:33:22;36.00;38.00
63039;DHT22;49125;48.812;9.206;2022-08-01T14:35:51;35.90;38.60
63039;DHT22;49125;48.812;9.206;2022-08-01T14:38:17;35.70;39.70
63039;DHT22;49125;48.812;9.206;2022-08-01T14:40:42;35.10;39.10
63039;DHT22;49125;48.812;9.206;2022-08-01T14:43:08;34.80;39.90
63039;DHT22;49125;48.812;9.206;2022-08-01T14:45:34;34.80;40.10
63039;DHT22;49125;48.812;9.206;2022-08-01T14:48:00;35.30;39.60
63039;DHT22;49125;48.812;9.206;2022-08-01T14:50:25;35.00;39.00
63039;DHT22;49125;48.812;9.206;2022-08-01T14:52:54;34.90;39.90
63039;DHT22;49125;48.812;9.206;2022-08-01T14:55:20;35.00;39.10
63039;DHT22;49125;48.812;9.206;2022-08-01T14:57:49;35.30;38.40
63039;DHT22;49125;48.812;9.206;2022-08-01T15:00:15;35.50;39.00
63039;DHT22;49125;48.812;9.206;2022-08-01T15:02:42;35.30;39.20
63039;DHT22;49125;48.812;9.206;2022-08-01T15:05:08;35.10;39.10
63039;DHT22;49125;48.812;9.206;2022-08-01T15:07:34;34.60;39.00
63039;DHT22;49125;48.812;9.206;2022-08-01T15:10:00;34.60;40.00
63039;DHT22;49125;48.812;9.206;2022-08-01T15:12:25;34.00;39.60
63039;DHT22;49125;48.812;9.206;2022-08-01T15:14:51;33.50;40.00
63039;DHT22;49125;48.812;9.206;2022-08-01T15:17:18;33.10;40.70
63039;DHT22;49125;48.812;9.206;2022-08-01T15:19:49;32.60;40.60
63039;DHT22;49125;48.812;9.206;2022-08-01T15:22:15;32.40;41.90
63039;DHT22;49125;48.812;9.206;2022-08-01T15:24:41;32.80;41.30
63039;DHT22;49125;48.812;9.206;2022-08-01T15:27:07;33.10;40.50
63039;DHT22;49125;48.812;9.206;2022-08-01T15:29:33;33.50;40.40
63039;DHT22;49125;48.812;9.206;2022-08-01T15:32:00;33.90;40.50
63039;DHT22;49125;48.812;9.206;2022-08-01T15:34:25;33.80;40.50
63039;DHT22;49125;48.812;9.206;2022-08-01T15:36:51;33.50;40.60
63039;DHT22;49125;48.812;9.206;2022-08-01T15:39:17;33.60;41.30
63039;DHT22;49125;48.812;9.206;2022-08-01T15:41:43;34.50;40.50
63039;DHT22;49125;48.812;9.206;2022-08-01T15:44:08;35.40;39.80
63039;DHT22;49125;48.812;9.206;2022-08-01T15:46:34;35.70;38.30
63039;DHT22;49125;48.812;9.206;2022-08-01T15:49:04;34.80;38.50
63039;DHT22;49125;48.812;9.206;2022-08-01T15:51:31;34.30;39.70
63039;DHT22;49125;48.812;9.206;2022-08-01T15:53:56;34.20;39.60
63039;DHT22;49125;48.812;9.206;2022-08-01T15:56:22;33.60;38.90
63039;DHT22;49125;48.812;9.206;2022-08-01T15:58:49;32.90;40.20
63039;DHT22;49125;48.812;9.206;2022-08-01T16:01:14;32.20;40.30
63039;DHT22;49125;48.812;9.206;2022-08-01T16:03:40;31.60;41.50
63039;DHT22;49125;48.812;9.206;2022-08-01T16:06:06;31.50;41.30
63039;DHT22;49125;48.812;9.206;2022-08-01T16:08:35;31.20;41.00
63039;DHT22;49125;48.812;9.206;2022-08-01T16:11:01;31.10;41.70
63039;DHT22;49125;48.812;9.206;2022-08-01T16:13:26;31.00;42.00